logo
Search for airport 
image banner adimage banner adimage banner ad
image banner ad

CA345 - Bonavista (Cbd4)

Located in , Canada

ICAO - , IATA -

Data provided by Airmate  

General information

Coordinates: N48°34'0" W53°3'0"
Elevation is 150 feet MSL.
 
View others Airports in Newfoundland and Labrador

Operational data

Special qualification required
Current time UTC:
Current local time:
Weather at : - ( 0 km )
METAR: PAKX 130315Z AUTO 00000KT 7SM -RA OVC060 11/05 A2964 RMK AO2
View NOTAMs / SUP AIP / TFR affecting this airport [VIEW]
Communications frequencies: [VIEW]

Runways:

Airport contact information

Address: Canada

Satellite view of CA345